الصفحة الرئيسية
METAR-TAF:

METAR-TAF

مطار :

مطار ميتشيل رومان الدولي

كورور, Babeldaob, بالاو

دائرة عرض: 07-22N, خط طول: 134-32E, ارتفاع: 54 متر

مراقبة الطقس الحالي

تاريخ ووقت الإصدار 1ساعة و 1 دقيقة قبل الساعة 15:54UTC
رياح هادئة
درجة الحرارة 24°درجة مئوية
الرطوبة 94%
ضغط 1009 hPa
الرؤية: 22.5 كم
غيوم متفرقة على ارتفاع 1500 قدم
غيوم مفككة على ارتفاع 29000 قدم

METAR: PTRO 221554Z COR 00000KT 14SM SCT015 BKN290 24/23 A2981

زمن: 01:55 (16:55 UTC)

توقعات

تاريخ ووقت الإصدار 5ساعات و 33 دقيقة قبل الساعة 11:22UTC
التوقعات صالحة من22 الساعة 12 UTC إلى 23 الساعة 12 UTC
ريح 6 عقدةمن اتجاهات متغيرة
الرؤية: 10 كم
غيوم متفرقة على ارتفاع 1600 قدم
غيوم متفرقة على ارتفاع 12000 قدم
زخات في الجوار

TAF: PTRO 221122Z 2212/2312 VRB06KT P6SM VCSH SCT016 SCT120

أرصاد الطقس والتوقعات من أكثر من 4000 مطار (تقارير الطقس للمطار METAR والتنبؤ بالطقس بالمطارTAF).

المحطات المتاحة هي النقط الصفراء والحمراء على الخريطة.

حرك المؤشر فوق النقطة لمعرفة اسم المحطة.

ثم انقر لمعرفة أرصاد وتوقعات الطقس.

لتغيير الخارطة: اضغط على الأزرار الخضراء مع رمز الصليب الأسود للتكبير. على الزر الأخضر مع شرطة للتصغير، أو على الأسهم الخضراء للخرائط المجاورة.


METAR-TAF: